sensor_id;sensor_type;location;lat;lon;timestamp;temperature;humidity
3713;DHT22;1872;51.406;6.856;2023-06-22T00:01:16;22.20;94.70
3713;DHT22;1872;51.406;6.856;2023-06-22T00:03:42;22.20;94.90
3713;DHT22;1872;51.406;6.856;2023-06-22T00:06:07;22.20;95.00
3713;DHT22;1872;51.406;6.856;2023-06-22T00:08:33;22.10;95.30
3713;DHT22;1872;51.406;6.856;2023-06-22T00:10:58;22.10;95.50
3713;DHT22;1872;51.406;6.856;2023-06-22T00:13:24;22.10;95.70
3713;DHT22;1872;51.406;6.856;2023-06-22T00:15:50;22.10;95.80
3713;DHT22;1872;51.406;6.856;2023-06-22T00:18:15;22.10;95.90
3713;DHT22;1872;51.406;6.856;2023-06-22T00:20:42;22.10;96.10
3713;DHT22;1872;51.406;6.856;2023-06-22T00:23:08;22.10;96.20
3713;DHT22;1872;51.406;6.856;2023-06-22T00:25:35;22.10;96.40
3713;DHT22;1872;51.406;6.856;2023-06-22T00:28:02;22.10;96.50
3713;DHT22;1872;51.406;6.856;2023-06-22T00:30:30;22.00;96.60
3713;DHT22;1872;51.406;6.856;2023-06-22T00:32:56;22.00;96.80
3713;DHT22;1872;51.406;6.856;2023-06-22T00:35:22;22.00;96.90
3713;DHT22;1872;51.406;6.856;2023-06-22T00:37:48;22.00;97.10
3713;DHT22;1872;51.406;6.856;2023-06-22T00:40:13;21.90;97.20
3713;DHT22;1872;51.406;6.856;2023-06-22T00:42:40;21.90;97.30
3713;DHT22;1872;51.406;6.856;2023-06-22T00:45:07;21.90;97.50
3713;DHT22;1872;51.406;6.856;2023-06-22T00:47:34;21.90;97.60
3713;DHT22;1872;51.406;6.856;2023-06-22T00:50:01;21.80;97.70
3713;DHT22;1872;51.406;6.856;2023-06-22T00:52:29;21.80;97.90
3713;DHT22;1872;51.406;6.856;2023-06-22T00:54:59;21.80;98.00
3713;DHT22;1872;51.406;6.856;2023-06-22T00:57:27;21.80;98.00
3713;DHT22;1872;51.406;6.856;2023-06-22T00:59:53;21.80;98.00
3713;DHT22;1872;51.406;6.856;2023-06-22T01:02:19;21.70;98.10
3713;DHT22;1872;51.406;6.856;2023-06-22T01:04:45;21.70;98.30
3713;DHT22;1872;51.406;6.856;2023-06-22T01:07:34;21.70;98.50
3713;DHT22;1872;51.406;6.856;2023-06-22T01:13:08;21.70;98.80
3713;DHT22;1872;51.406;6.856;2023-06-22T01:16:07;21.60;98.70
3713;DHT22;1872;51.406;6.856;2023-06-22T01:18:36;21.60;99.00
3713;DHT22;1872;51.406;6.856;2023-06-22T01:21:06;21.60;99.00
3713;DHT22;1872;51.406;6.856;2023-06-22T01:26:43;21.50;99.40
3713;DHT22;1872;51.406;6.856;2023-06-22T01:29:15;21.50;99.40
3713;DHT22;1872;51.406;6.856;2023-06-22T01:31:42;21.50;99.50
3713;DHT22;1872;51.406;6.856;2023-06-22T01:34:09;21.50;99.60
3713;DHT22;1872;51.406;6.856;2023-06-22T01:36:38;21.50;99.70
3713;DHT22;1872;51.406;6.856;2023-06-22T01:39:05;21.40;99.80
3713;DHT22;1872;51.406;6.856;2023-06-22T01:41:35;21.50;99.90
3713;DHT22;1872;51.406;6.856;2023-06-22T01:44:05;21.50;99.90
3713;DHT22;1872;51.406;6.856;2023-06-22T01:46:31;21.40;99.90
3713;DHT22;1872;51.406;6.856;2023-06-22T01:48:57;21.40;99.90
3713;DHT22;1872;51.406;6.856;2023-06-22T01:51:23;21.40;99.90
3713;DHT22;1872;51.406;6.856;2023-06-22T01:53:49;21.40;99.90
3713;DHT22;1872;51.406;6.856;2023-06-22T01:56:18;21.40;99.90
3713;DHT22;1872;51.406;6.856;2023-06-22T02:02:10;21.30;99.90
3713;DHT22;1872;51.406;6.856;2023-06-22T02:04:57;21.30;99.90
3713;DHT22;1872;51.406;6.856;2023-06-22T02:07:28;21.20;99.90
3713;DHT22;1872;51.406;6.856;2023-06-22T02:09:56;21.20;99.90
3713;DHT22;1872;51.406;6.856;2023-06-22T02:12:25;21.20;99.90
3713;DHT22;1872;51.406;6.856;2023-06-22T02:14:53;21.20;99.90
3713;DHT22;1872;51.406;6.856;2023-06-22T02:17:18;21.20;99.90
3713;DHT22;1872;51.406;6.856;2023-06-22T02:19:44;21.20;99.90
3713;DHT22;1872;51.406;6.856;2023-06-22T02:22:10;21.10;99.90
3713;DHT22;1872;51.406;6.856;2023-06-22T02:24:39;21.10;99.90
3713;DHT22;1872;51.406;6.856;2023-06-22T02:27:05;21.10;99.90
3713;DHT22;1872;51.406;6.856;2023-06-22T02:29:32;21.10;99.90
3713;DHT22;1872;51.406;6.856;2023-06-22T02:31:58;21.10;99.90
3713;DHT22;1872;51.406;6.856;2023-06-22T02:34:24;21.10;99.90
3713;DHT22;1872;51.406;6.856;2023-06-22T02:36:50;21.00;99.90
3713;DHT22;1872;51.406;6.856;2023-06-22T02:39:23;21.00;99.90
3713;DHT22;1872;51.406;6.856;2023-06-22T02:41:54;21.00;99.90
3713;DHT22;1872;51.406;6.856;2023-06-22T02:44:20;21.00;99.90
3713;DHT22;1872;51.406;6.856;2023-06-22T02:46:46;21.00;99.90
3713;DHT22;1872;51.406;6.856;2023-06-22T02:49:12;20.90;99.90
3713;DHT22;1872;51.406;6.856;2023-06-22T02:51:41;20.90;99.90
3713;DHT22;1872;51.406;6.856;2023-06-22T02:54:07;21.00;99.90
3713;DHT22;1872;51.406;6.856;2023-06-22T02:56:32;20.90;99.90
3713;DHT22;1872;51.406;6.856;2023-06-22T02:58:58;20.90;99.90
3713;DHT22;1872;51.406;6.856;2023-06-22T03:01:30;20.90;99.90
3713;DHT22;1872;51.406;6.856;2023-06-22T03:04:06;20.90;99.90
3713;DHT22;1872;51.406;6.856;2023-06-22T03:06:34;20.90;99.90
3713;DHT22;1872;51.406;6.856;2023-06-22T03:09:04;20.80;99.90
3713;DHT22;1872;51.406;6.856;2023-06-22T03:11:31;20.80;99.90
3713;DHT22;1872;51.406;6.856;2023-06-22T03:13:56;20.80;99.90
3713;DHT22;1872;51.406;6.856;2023-06-22T03:16:22;20.80;99.90
3713;DHT22;1872;51.406;6.856;2023-06-22T03:18:48;20.70;99.90
3713;DHT22;1872;51.406;6.856;2023-06-22T03:21:13;20.70;99.90
3713;DHT22;1872;51.406;6.856;2023-06-22T03:23:41;20.70;99.90
3713;DHT22;1872;51.406;6.856;2023-06-22T03:26:08;20.60;99.90
3713;DHT22;1872;51.406;6.856;2023-06-22T03:28:38;20.60;99.90
3713;DHT22;1872;51.406;6.856;2023-06-22T03:31:04;20.60;99.90
3713;DHT22;1872;51.406;6.856;2023-06-22T03:33:33;20.60;99.90
3713;DHT22;1872;51.406;6.856;2023-06-22T03:35:58;20.60;99.90
3713;DHT22;1872;51.406;6.856;2023-06-22T03:38:24;20.60;99.90
3713;DHT22;1872;51.406;6.856;2023-06-22T03:40:50;20.60;99.90
3713;DHT22;1872;51.406;6.856;2023-06-22T03:43:16;20.50;99.90
3713;DHT22;1872;51.406;6.856;2023-06-22T03:45:41;20.50;99.90
3713;DHT22;1872;51.406;6.856;2023-06-22T03:48:07;20.60;99.90
3713;DHT22;1872;51.406;6.856;2023-06-22T03:50:35;20.50;99.90
3713;DHT22;1872;51.406;6.856;2023-06-22T03:53:01;20.50;99.90
3713;DHT22;1872;51.406;6.856;2023-06-22T03:55:27;20.50;99.90
3713;DHT22;1872;51.406;6.856;2023-06-22T03:57:53;20.50;99.90
3713;DHT22;1872;51.406;6.856;2023-06-22T04:00:22;20.60;99.90
3713;DHT22;1872;51.406;6.856;2023-06-22T04:02:48;20.60;99.90
3713;DHT22;1872;51.406;6.856;2023-06-22T04:05:15;20.60;99.90
3713;DHT22;1872;51.406;6.856;2023-06-22T04:07:42;20.60;99.90
3713;DHT22;1872;51.406;6.856;2023-06-22T04:10:09;20.60;99.90
3713;DHT22;1872;51.406;6.856;2023-06-22T04:12:34;20.60;99.90
3713;DHT22;1872;51.406;6.856;2023-06-22T04:15:00;20.70;99.90
3713;DHT22;1872;51.406;6.856;2023-06-22T04:17:25;20.70;99.90
3713;DHT22;1872;51.406;6.856;2023-06-22T04:19:51;20.60;99.90
3713;DHT22;1872;51.406;6.856;2023-06-22T04:22:17;20.70;99.90
3713;DHT22;1872;51.406;6.856;2023-06-22T04:24:43;20.60;99.90
3713;DHT22;1872;51.406;6.856;2023-06-22T04:27:09;20.60;99.90
3713;DHT22;1872;51.406;6.856;2023-06-22T04:29:38;20.70;99.90
3713;DHT22;1872;51.406;6.856;2023-06-22T04:32:16;20.70;99.90
3713;DHT22;1872;51.406;6.856;2023-06-22T04:34:42;20.70;99.90
3713;DHT22;1872;51.406;6.856;2023-06-22T04:37:08;20.70;99.90
3713;DHT22;1872;51.406;6.856;2023-06-22T04:39:34;20.70;99.90
3713;DHT22;1872;51.406;6.856;2023-06-22T04:41:59;20.70;99.90
3713;DHT22;1872;51.406;6.856;2023-06-22T04:44:26;20.70;99.90
3713;DHT22;1872;51.406;6.856;2023-06-22T04:46:58;20.70;99.90
3713;DHT22;1872;51.406;6.856;2023-06-22T04:49:29;20.80;99.90
3713;DHT22;1872;51.406;6.856;2023-06-22T04:52:09;20.70;99.90
3713;DHT22;1872;51.406;6.856;2023-06-22T04:54:37;20.70;99.90
3713;DHT22;1872;51.406;6.856;2023-06-22T04:57:05;20.70;99.90
3713;DHT22;1872;51.406;6.856;2023-06-22T04:59:36;20.70;99.90
3713;DHT22;1872;51.406;6.856;2023-06-22T05:02:05;20.70;99.90
3713;DHT22;1872;51.406;6.856;2023-06-22T05:04:31;20.70;99.90
3713;DHT22;1872;51.406;6.856;2023-06-22T05:06:58;20.70;99.90
3713;DHT22;1872;51.406;6.856;2023-06-22T05:09:24;20.70;99.90
3713;DHT22;1872;51.406;6.856;2023-06-22T05:11:50;20.70;99.90
3713;DHT22;1872;51.406;6.856;2023-06-22T05:14:16;20.70;99.90
3713;DHT22;1872;51.406;6.856;2023-06-22T05:16:46;20.70;99.90
3713;DHT22;1872;51.406;6.856;2023-06-22T05:19:15;20.70;99.90
3713;DHT22;1872;51.406;6.856;2023-06-22T05:21:41;20.70;99.90
3713;DHT22;1872;51.406;6.856;2023-06-22T05:24:06;20.70;99.90
3713;DHT22;1872;51.406;6.856;2023-06-22T05:26:34;20.80;99.90
3713;DHT22;1872;51.406;6.856;2023-06-22T05:29:01;20.80;99.90
3713;DHT22;1872;51.406;6.856;2023-06-22T05:31:28;20.80;99.90
3713;DHT22;1872;51.406;6.856;2023-06-22T05:33:54;20.80;99.90
3713;DHT22;1872;51.406;6.856;2023-06-22T05:36:20;20.80;99.90
3713;DHT22;1872;51.406;6.856;2023-06-22T05:38:47;20.80;99.90
3713;DHT22;1872;51.406;6.856;2023-06-22T05:41:13;20.70;99.90
3713;DHT22;1872;51.406;6.856;2023-06-22T05:43:40;20.60;99.90
3713;DHT22;1872;51.406;6.856;2023-06-22T05:46:05;20.60;99.90
3713;DHT22;1872;51.406;6.856;2023-06-22T05:48:31;20.50;99.90
3713;DHT22;1872;51.406;6.856;2023-06-22T05:51:00;20.40;99.90
3713;DHT22;1872;51.406;6.856;2023-06-22T05:53:26;20.40;99.90
3713;DHT22;1872;51.406;6.856;2023-06-22T05:55:53;20.20;99.90
3713;DHT22;1872;51.406;6.856;2023-06-22T05:58:18;20.20;99.90
3713;DHT22;1872;51.406;6.856;2023-06-22T06:00:44;20.10;99.90
3713;DHT22;1872;51.406;6.856;2023-06-22T06:03:10;20.00;99.90
3713;DHT22;1872;51.406;6.856;2023-06-22T06:05:36;19.80;99.90
3713;DHT22;1872;51.406;6.856;2023-06-22T06:08:04;19.70;99.90
3713;DHT22;1872;51.406;6.856;2023-06-22T06:10:31;19.60;99.90
3713;DHT22;1872;51.406;6.856;2023-06-22T06:12:57;19.50;99.90
3713;DHT22;1872;51.406;6.856;2023-06-22T06:15:23;19.40;99.90
3713;DHT22;1872;51.406;6.856;2023-06-22T06:17:50;19.30;99.90
3713;DHT22;1872;51.406;6.856;2023-06-22T06:20:22;19.30;99.90
3713;DHT22;1872;51.406;6.856;2023-06-22T06:22:48;19.30;99.90
3713;DHT22;1872;51.406;6.856;2023-06-22T06:25:16;19.30;99.90
3713;DHT22;1872;51.406;6.856;2023-06-22T06:27:53;19.30;99.90
3713;DHT22;1872;51.406;6.856;2023-06-22T06:30:25;19.30;99.90
3713;DHT22;1872;51.406;6.856;2023-06-22T06:32:54;19.40;99.90
3713;DHT22;1872;51.406;6.856;2023-06-22T06:35:22;19.40;99.90
3713;DHT22;1872;51.406;6.856;2023-06-22T06:37:53;19.40;99.90
3713;DHT22;1872;51.406;6.856;2023-06-22T06:40:19;19.50;99.90
3713;DHT22;1872;51.406;6.856;2023-06-22T06:42:49;19.50;99.90
3713;DHT22;1872;51.406;6.856;2023-06-22T06:45:22;19.50;99.90
3713;DHT22;1872;51.406;6.856;2023-06-22T06:47:49;19.50;99.90
3713;DHT22;1872;51.406;6.856;2023-06-22T06:50:18;19.50;99.90
3713;DHT22;1872;51.406;6.856;2023-06-22T06:52:48;19.50;99.90
3713;DHT22;1872;51.406;6.856;2023-06-22T06:55:15;19.50;99.90
3713;DHT22;1872;51.406;6.856;2023-06-22T06:57:42;19.50;99.90
3713;DHT22;1872;51.406;6.856;2023-06-22T07:00:10;19.50;99.90
3713;DHT22;1872;51.406;6.856;2023-06-22T07:02:40;19.50;99.90
3713;DHT22;1872;51.406;6.856;2023-06-22T07:05:07;19.50;99.90
3713;DHT22;1872;51.406;6.856;2023-06-22T07:07:35;19.50;99.90
3713;DHT22;1872;51.406;6.856;2023-06-22T07:10:02;19.60;99.90
3713;DHT22;1872;51.406;6.856;2023-06-22T07:12:29;19.60;99.90
3713;DHT22;1872;51.406;6.856;2023-06-22T07:15:04;19.60;99.90
3713;DHT22;1872;51.406;6.856;2023-06-22T07:17:31;19.70;99.90
3713;DHT22;1872;51.406;6.856;2023-06-22T07:19:57;19.70;99.90
3713;DHT22;1872;51.406;6.856;2023-06-22T07:22:23;19.70;99.90
3713;DHT22;1872;51.406;6.856;2023-06-22T07:24:51;19.70;99.90
3713;DHT22;1872;51.406;6.856;2023-06-22T07:27:17;19.80;99.90
3713;DHT22;1872;51.406;6.856;2023-06-22T07:29:46;19.90;99.90
3713;DHT22;1872;51.406;6.856;2023-06-22T07:32:16;19.90;99.90
3713;DHT22;1872;51.406;6.856;2023-06-22T07:34:41;19.90;99.90
3713;DHT22;1872;51.406;6.856;2023-06-22T07:37:07;19.90;99.90
3713;DHT22;1872;51.406;6.856;2023-06-22T07:39:35;19.90;99.90
3713;DHT22;1872;51.406;6.856;2023-06-22T07:42:03;19.90;99.90
3713;DHT22;1872;51.406;6.856;2023-06-22T07:44:29;19.90;99.90
3713;DHT22;1872;51.406;6.856;2023-06-22T07:46:54;19.80;99.90
3713;DHT22;1872;51.406;6.856;2023-06-22T07:49:20;19.80;99.90
3713;DHT22;1872;51.406;6.856;2023-06-22T07:51:49;19.80;99.90
3713;DHT22;1872;51.406;6.856;2023-06-22T07:54:15;19.80;99.90
3713;DHT22;1872;51.406;6.856;2023-06-22T07:56:49;19.80;99.90
3713;DHT22;1872;51.406;6.856;2023-06-22T07:59:15;19.80;99.90
3713;DHT22;1872;51.406;6.856;2023-06-22T08:01:41;19.80;99.90
3713;DHT22;1872;51.406;6.856;2023-06-22T08:04:07;19.80;99.90
3713;DHT22;1872;51.406;6.856;2023-06-22T08:06:40;19.80;99.90
3713;DHT22;1872;51.406;6.856;2023-06-22T08:09:09;19.80;99.90
3713;DHT22;1872;51.406;6.856;2023-06-22T08:11:35;19.80;99.90
3713;DHT22;1872;51.406;6.856;2023-06-22T08:14:00;19.80;99.90
3713;DHT22;1872;51.406;6.856;2023-06-22T08:16:26;19.80;99.90
3713;DHT22;1872;51.406;6.856;2023-06-22T08:18:52;19.80;99.90
3713;DHT22;1872;51.406;6.856;2023-06-22T08:21:22;19.80;99.90
3713;DHT22;1872;51.406;6.856;2023-06-22T08:23:49;19.90;99.90
3713;DHT22;1872;51.406;6.856;2023-06-22T08:26:15;20.00;99.90
3713;DHT22;1872;51.406;6.856;2023-06-22T08:28:41;20.00;99.90
3713;DHT22;1872;51.406;6.856;2023-06-22T08:31:06;20.10;99.90
3713;DHT22;1872;51.406;6.856;2023-06-22T08:33:32;20.30;99.90
3713;DHT22;1872;51.406;6.856;2023-06-22T08:35:59;20.30;99.90
3713;DHT22;1872;51.406;6.856;2023-06-22T08:38:26;20.40;99.90
3713;DHT22;1872;51.406;6.856;2023-06-22T08:40:52;20.40;99.90
3713;DHT22;1872;51.406;6.856;2023-06-22T08:43:17;20.50;99.90
3713;DHT22;1872;51.406;6.856;2023-06-22T08:45:46;20.50;99.90
3713;DHT22;1872;51.406;6.856;2023-06-22T08:48:12;20.50;99.90
3713;DHT22;1872;51.406;6.856;2023-06-22T08:50:39;20.50;99.90
3713;DHT22;1872;51.406;6.856;2023-06-22T08:53:08;20.50;99.90
3713;DHT22;1872;51.406;6.856;2023-06-22T08:55:34;20.50;99.90
3713;DHT22;1872;51.406;6.856;2023-06-22T08:58:01;20.50;99.90
3713;DHT22;1872;51.406;6.856;2023-06-22T09:00:28;20.60;99.90
3713;DHT22;1872;51.406;6.856;2023-06-22T09:02:58;20.60;99.90
3713;DHT22;1872;51.406;6.856;2023-06-22T09:05:28;20.70;99.90
3713;DHT22;1872;51.406;6.856;2023-06-22T09:07:56;20.90;99.90
3713;DHT22;1872;51.406;6.856;2023-06-22T09:10:25;21.00;99.90
3713;DHT22;1872;51.406;6.856;2023-06-22T09:12:51;21.10;99.90
3713;DHT22;1872;51.406;6.856;2023-06-22T09:15:17;21.30;99.90
3713;DHT22;1872;51.406;6.856;2023-06-22T09:17:42;21.50;99.90
3713;DHT22;1872;51.406;6.856;2023-06-22T09:20:09;21.70;99.90
3713;DHT22;1872;51.406;6.856;2023-06-22T09:22:36;22.10;99.90
3713;DHT22;1872;51.406;6.856;2023-06-22T09:25:04;22.50;99.90
3713;DHT22;1872;51.406;6.856;2023-06-22T09:27:30;22.70;99.90
3713;DHT22;1872;51.406;6.856;2023-06-22T09:30:01;22.90;99.90
3713;DHT22;1872;51.406;6.856;2023-06-22T09:32:38;22.90;99.90
3713;DHT22;1872;51.406;6.856;2023-06-22T09:35:09;23.00;99.90
3713;DHT22;1872;51.406;6.856;2023-06-22T09:37:35;23.20;99.90
3713;DHT22;1872;51.406;6.856;2023-06-22T09:40:01;23.30;99.90
3713;DHT22;1872;51.406;6.856;2023-06-22T09:42:33;23.40;99.90
3713;DHT22;1872;51.406;6.856;2023-06-22T09:45:02;23.40;99.90
3713;DHT22;1872;51.406;6.856;2023-06-22T09:47:28;23.40;99.90
3713;DHT22;1872;51.406;6.856;2023-06-22T09:49:54;23.30;99.90
3713;DHT22;1872;51.406;6.856;2023-06-22T09:52:22;23.40;99.90
3713;DHT22;1872;51.406;6.856;2023-06-22T09:54:48;23.40;99.90
3713;DHT22;1872;51.406;6.856;2023-06-22T09:57:13;23.50;99.90
3713;DHT22;1872;51.406;6.856;2023-06-22T09:59:39;23.50;99.90
3713;DHT22;1872;51.406;6.856;2023-06-22T10:02:08;23.50;99.90
3713;DHT22;1872;51.406;6.856;2023-06-22T10:04:44;23.50;99.90
3713;DHT22;1872;51.406;6.856;2023-06-22T10:07:10;23.60;99.90
3713;DHT22;1872;51.406;6.856;2023-06-22T10:09:36;23.70;99.90
3713;DHT22;1872;51.406;6.856;2023-06-22T10:12:01;23.70;99.90
3713;DHT22;1872;51.406;6.856;2023-06-22T10:14:27;23.80;99.90
3713;DHT22;1872;51.406;6.856;2023-06-22T10:16:55;23.90;99.90
3713;DHT22;1872;51.406;6.856;2023-06-22T10:19:22;24.00;99.90
3713;DHT22;1872;51.406;6.856;2023-06-22T10:21:48;24.00;99.90
3713;DHT22;1872;51.406;6.856;2023-06-22T10:24:13;24.10;99.90
3713;DHT22;1872;51.406;6.856;2023-06-22T10:26:39;24.20;99.90
3713;DHT22;1872;51.406;6.856;2023-06-22T10:29:05;24.30;99.90
3713;DHT22;1872;51.406;6.856;2023-06-22T10:31:33;24.30;99.90
3713;DHT22;1872;51.406;6.856;2023-06-22T10:34:02;24.40;99.90
3713;DHT22;1872;51.406;6.856;2023-06-22T10:36:33;24.40;99.90
3713;DHT22;1872;51.406;6.856;2023-06-22T10:39:05;24.30;99.90
3713;DHT22;1872;51.406;6.856;2023-06-22T10:41:31;24.30;99.90
3713;DHT22;1872;51.406;6.856;2023-06-22T10:44:02;24.30;99.90
3713;DHT22;1872;51.406;6.856;2023-06-22T10:46:31;24.20;99.90
3713;DHT22;1872;51.406;6.856;2023-06-22T10:48:58;24.20;99.90
3713;DHT22;1872;51.406;6.856;2023-06-22T10:51:28;24.10;99.90
3713;DHT22;1872;51.406;6.856;2023-06-22T10:54:00;24.00;99.90
3713;DHT22;1872;51.406;6.856;2023-06-22T10:56:33;23.90;99.90
3713;DHT22;1872;51.406;6.856;2023-06-22T10:59:07;23.90;99.90
3713;DHT22;1872;51.406;6.856;2023-06-22T11:01:36;23.80;99.90
3713;DHT22;1872;51.406;6.856;2023-06-22T11:04:06;23.80;99.90
3713;DHT22;1872;51.406;6.856;2023-06-22T11:06:50;23.70;99.90
3713;DHT22;1872;51.406;6.856;2023-06-22T11:09:17;23.70;99.90
3713;DHT22;1872;51.406;6.856;2023-06-22T11:11:50;23.70;99.90
3713;DHT22;1872;51.406;6.856;2023-06-22T11:14:19;23.50;99.90
3713;DHT22;1872;51.406;6.856;2023-06-22T11:16:45;23.40;99.90
3713;DHT22;1872;51.406;6.856;2023-06-22T11:19:12;23.30;99.90
3713;DHT22;1872;51.406;6.856;2023-06-22T11:21:38;23.10;99.90
3713;DHT22;1872;51.406;6.856;2023-06-22T11:24:04;23.00;99.90
3713;DHT22;1872;51.406;6.856;2023-06-22T11:26:30;22.90;99.90
3713;DHT22;1872;51.406;6.856;2023-06-22T11:28:58;22.80;99.90
3713;DHT22;1872;51.406;6.856;2023-06-22T11:31:31;22.70;99.90
3713;DHT22;1872;51.406;6.856;2023-06-22T11:33:59;22.60;99.90
3713;DHT22;1872;51.406;6.856;2023-06-22T11:36:28;22.50;99.90
3713;DHT22;1872;51.406;6.856;2023-06-22T11:38:56;22.50;99.90
3713;DHT22;1872;51.406;6.856;2023-06-22T11:41:22;22.40;99.90
3713;DHT22;1872;51.406;6.856;2023-06-22T11:43:48;22.30;99.90
3713;DHT22;1872;51.406;6.856;2023-06-22T11:46:13;22.30;99.90
3713;DHT22;1872;51.406;6.856;2023-06-22T11:48:40;22.20;99.90
3713;DHT22;1872;51.406;6.856;2023-06-22T11:51:06;22.20;99.90
3713;DHT22;1872;51.406;6.856;2023-06-22T11:53:33;22.20;99.90
3713;DHT22;1872;51.406;6.856;2023-06-22T11:56:01;22.10;99.90
3713;DHT22;1872;51.406;6.856;2023-06-22T11:58:27;22.00;99.90
3713;DHT22;1872;51.406;6.856;2023-06-22T12:00:53;21.90;99.90
3713;DHT22;1872;51.406;6.856;2023-06-22T12:03:20;21.80;99.90
3713;DHT22;1872;51.406;6.856;2023-06-22T12:05:50;21.80;99.90
3713;DHT22;1872;51.406;6.856;2023-06-22T12:08:18;21.70;99.90
3713;DHT22;1872;51.406;6.856;2023-06-22T12:10:44;21.70;99.90
3713;DHT22;1872;51.406;6.856;2023-06-22T12:13:10;21.60;99.90
3713;DHT22;1872;51.406;6.856;2023-06-22T12:15:37;21.60;99.90
3713;DHT22;1872;51.406;6.856;2023-06-22T12:18:03;21.50;99.90
3713;DHT22;1872;51.406;6.856;2023-06-22T12:20:29;21.50;99.90
3713;DHT22;1872;51.406;6.856;2023-06-22T12:22:55;21.50;99.90
3713;DHT22;1872;51.406;6.856;2023-06-22T12:25:22;21.50;99.90
3713;DHT22;1872;51.406;6.856;2023-06-22T12:27:47;21.50;99.90
3713;DHT22;1872;51.406;6.856;2023-06-22T12:30:13;21.50;99.90
3713;DHT22;1872;51.406;6.856;2023-06-22T12:32:39;21.60;99.90
3713;DHT22;1872;51.406;6.856;2023-06-22T12:35:05;21.70;99.90
3713;DHT22;1872;51.406;6.856;2023-06-22T12:37:32;21.70;99.90
3713;DHT22;1872;51.406;6.856;2023-06-22T12:39:59;21.80;99.90
3713;DHT22;1872;51.406;6.856;2023-06-22T12:42:27;21.80;99.90
3713;DHT22;1872;51.406;6.856;2023-06-22T12:44:53;21.70;99.90
3713;DHT22;1872;51.406;6.856;2023-06-22T12:47:19;21.70;99.90
3713;DHT22;1872;51.406;6.856;2023-06-22T12:49:45;21.60;99.90
3713;DHT22;1872;51.406;6.856;2023-06-22T12:52:11;21.50;99.90
3713;DHT22;1872;51.406;6.856;2023-06-22T12:54:39;21.50;99.90
3713;DHT22;1872;51.406;6.856;2023-06-22T12:57:05;21.40;99.90
3713;DHT22;1872;51.406;6.856;2023-06-22T12:59:34;21.40;99.90
3713;DHT22;1872;51.406;6.856;2023-06-22T13:02:00;21.40;99.90
3713;DHT22;1872;51.406;6.856;2023-06-22T13:04:25;21.40;99.90
3713;DHT22;1872;51.406;6.856;2023-06-22T13:06:56;21.40;99.90
3713;DHT22;1872;51.406;6.856;2023-06-22T13:09:22;21.40;99.90
3713;DHT22;1872;51.406;6.856;2023-06-22T13:11:47;21.40;99.90
3713;DHT22;1872;51.406;6.856;2023-06-22T13:14:13;21.40;99.90
3713;DHT22;1872;51.406;6.856;2023-06-22T13:16:39;21.40;99.90
3713;DHT22;1872;51.406;6.856;2023-06-22T13:19:05;21.50;99.90
3713;DHT22;1872;51.406;6.856;2023-06-22T13:21:31;21.50;99.90
3713;DHT22;1872;51.406;6.856;2023-06-22T13:24:00;21.50;99.90
3713;DHT22;1872;51.406;6.856;2023-06-22T13:26:26;21.50;99.90
3713;DHT22;1872;51.406;6.856;2023-06-22T13:28:54;21.60;99.90
3713;DHT22;1872;51.406;6.856;2023-06-22T13:31:25;21.60;99.90
3713;DHT22;1872;51.406;6.856;2023-06-22T13:33:54;21.60;99.90
3713;DHT22;1872;51.406;6.856;2023-06-22T13:36:20;21.60;99.90
3713;DHT22;1872;51.406;6.856;2023-06-22T13:38:49;21.70;99.90
3713;DHT22;1872;51.406;6.856;2023-06-22T13:41:14;21.70;99.90
3713;DHT22;1872;51.406;6.856;2023-06-22T13:43:41;21.70;99.90
3713;DHT22;1872;51.406;6.856;2023-06-22T13:46:07;21.70;99.90
3713;DHT22;1872;51.406;6.856;2023-06-22T13:48:32;21.80;99.90
3713;DHT22;1872;51.406;6.856;2023-06-22T13:50:58;21.90;99.90
3713;DHT22;1872;51.406;6.856;2023-06-22T13:53:28;21.90;99.90
3713;DHT22;1872;51.406;6.856;2023-06-22T13:55:56;22.00;99.90
3713;DHT22;1872;51.406;6.856;2023-06-22T13:58:21;22.00;99.90
3713;DHT22;1872;51.406;6.856;2023-06-22T14:00:48;22.00;99.90
3713;DHT22;1872;51.406;6.856;2023-06-22T14:03:17;22.00;99.90
3713;DHT22;1872;51.406;6.856;2023-06-22T14:05:43;22.00;99.90
3713;DHT22;1872;51.406;6.856;2023-06-22T14:08:12;22.00;99.90
3713;DHT22;1872;51.406;6.856;2023-06-22T14:10:39;22.00;99.90
3713;DHT22;1872;51.406;6.856;2023-06-22T14:13:04;22.00;99.90
3713;DHT22;1872;51.406;6.856;2023-06-22T14:15:31;21.90;99.90
3713;DHT22;1872;51.406;6.856;2023-06-22T14:17:57;21.90;99.90
3713;DHT22;1872;51.406;6.856;2023-06-22T14:20:23;21.90;99.90
3713;DHT22;1872;51.406;6.856;2023-06-22T14:22:50;21.80;99.90
3713;DHT22;1872;51.406;6.856;2023-06-22T14:25:24;21.80;99.90
3713;DHT22;1872;51.406;6.856;2023-06-22T14:27:50;21.80;99.90
3713;DHT22;1872;51.406;6.856;2023-06-22T14:30:16;21.80;99.90
3713;DHT22;1872;51.406;6.856;2023-06-22T14:32:43;21.90;99.90
3713;DHT22;1872;51.406;6.856;2023-06-22T14:35:10;21.90;99.90
3713;DHT22;1872;51.406;6.856;2023-06-22T14:37:36;21.90;99.90
3713;DHT22;1872;51.406;6.856;2023-06-22T14:40:09;21.90;99.90
3713;DHT22;1872;51.406;6.856;2023-06-22T14:42:36;21.90;99.90
3713;DHT22;1872;51.406;6.856;2023-06-22T14:45:01;21.90;99.90
3713;DHT22;1872;51.406;6.856;2023-06-22T14:47:27;21.90;99.90
3713;DHT22;1872;51.406;6.856;2023-06-22T14:49:56;21.90;99.90
3713;DHT22;1872;51.406;6.856;2023-06-22T14:52:22;21.90;99.90
3713;DHT22;1872;51.406;6.856;2023-06-22T14:54:48;21.90;99.90
3713;DHT22;1872;51.406;6.856;2023-06-22T14:57:13;21.90;99.90
3713;DHT22;1872;51.406;6.856;2023-06-22T14:59:43;21.80;99.90
3713;DHT22;1872;51.406;6.856;2023-06-22T15:02:09;21.80;99.90
3713;DHT22;1872;51.406;6.856;2023-06-22T15:04:36;21.80;99.90
3713;DHT22;1872;51.406;6.856;2023-06-22T15:07:02;21.80;99.90
3713;DHT22;1872;51.406;6.856;2023-06-22T15:09:28;21.90;99.90
3713;DHT22;1872;51.406;6.856;2023-06-22T15:11:53;21.90;99.90
3713;DHT22;1872;51.406;6.856;2023-06-22T15:14:19;21.90;99.90
3713;DHT22;1872;51.406;6.856;2023-06-22T15:16:45;22.00;99.90
3713;DHT22;1872;51.406;6.856;2023-06-22T15:19:11;22.00;99.90
3713;DHT22;1872;51.406;6.856;2023-06-22T15:21:38;21.90;99.90
3713;DHT22;1872;51.406;6.856;2023-06-22T15:24:04;21.90;99.90
3713;DHT22;1872;51.406;6.856;2023-06-22T15:26:30;21.90;99.90
3713;DHT22;1872;51.406;6.856;2023-06-22T15:28:56;21.90;99.90
3713;DHT22;1872;51.406;6.856;2023-06-22T15:31:24;21.90;99.90
3713;DHT22;1872;51.406;6.856;2023-06-22T15:33:49;21.90;99.90
3713;DHT22;1872;51.406;6.856;2023-06-22T15:36:15;21.90;99.90
3713;DHT22;1872;51.406;6.856;2023-06-22T15:38:41;22.00;99.90
3713;DHT22;1872;51.406;6.856;2023-06-22T15:41:07;21.90;99.90
3713;DHT22;1872;51.406;6.856;2023-06-22T15:43:32;21.90;99.90
3713;DHT22;1872;51.406;6.856;2023-06-22T15:45:58;21.90;99.90
3713;DHT22;1872;51.406;6.856;2023-06-22T15:48:25;21.90;99.90
3713;DHT22;1872;51.406;6.856;2023-06-22T15:50:52;21.90;99.90
3713;DHT22;1872;51.406;6.856;2023-06-22T15:53:17;21.90;99.90
3713;DHT22;1872;51.406;6.856;2023-06-22T15:55:43;21.90;99.90
3713;DHT22;1872;51.406;6.856;2023-06-22T15:58:09;21.80;99.90
3713;DHT22;1872;51.406;6.856;2023-06-22T16:00:38;21.80;99.90
3713;DHT22;1872;51.406;6.856;2023-06-22T16:03:03;21.80;99.90
3713;DHT22;1872;51.406;6.856;2023-06-22T16:05:29;21.70;99.90
3713;DHT22;1872;51.406;6.856;2023-06-22T16:07:56;21.60;99.90
3713;DHT22;1872;51.406;6.856;2023-06-22T16:10:22;21.50;99.90
3713;DHT22;1872;51.406;6.856;2023-06-22T16:12:48;21.20;99.90